createdAt,value
2022-12-29T00:04:09.929Z,4.07
2022-12-29T00:09:17.767Z,6.85
2022-12-29T00:14:39.051Z,3.35
2022-12-29T00:20:00.298Z,6.15
2022-12-29T00:25:21.713Z,5.20
2022-12-29T00:30:43.903Z,4.95
2022-12-29T00:35:53.589Z,7.70
2022-12-29T00:41:14.695Z,5.28
2022-12-29T00:46:19.896Z,8.13
2022-12-29T00:51:22.749Z,3.42
2022-12-29T00:56:25.680Z,9.23
2022-12-29T01:01:28.496Z,5.88
2022-12-29T01:06:33.758Z,5.72
2022-12-29T01:11:36.276Z,5.10
2022-12-29T01:16:38.927Z,4.57
2022-12-29T01:21:42.007Z,10.68
2022-12-29T01:26:44.884Z,6.97
2022-12-29T01:31:47.782Z,8.68
2022-12-29T01:36:50.362Z,5.80
2022-12-29T01:41:53.054Z,7.05
2022-12-29T01:46:56.053Z,5.55
2022-12-29T01:52:02.830Z,7.75
2022-12-29T01:57:12.727Z,8.40
2022-12-29T02:02:15.344Z,9.07
2022-12-29T02:07:24.517Z,5.43
2022-12-29T02:12:27.064Z,8.27
2022-12-29T02:17:38.963Z,8.02
2022-12-29T02:22:44.487Z,5.68
2022-12-29T02:27:51.504Z,9.80
2022-12-29T02:33:01.523Z,7.45
2022-12-29T02:38:25.151Z,6.95
2022-12-29T02:44:02.437Z,7.38
2022-12-29T02:49:20.935Z,11.40
2022-12-29T02:54:42.190Z,5.65
2022-12-29T02:59:48.300Z,10.25
2022-12-29T03:05:24.353Z,8.50
2022-12-29T03:10:47.964Z,6.22
2022-12-29T03:16:08.790Z,4.75
2022-12-29T03:21:58.048Z,7.05
2022-12-29T03:27:05.554Z,10.40
2022-12-29T03:32:15.956Z,8.82
2022-12-29T03:37:30.815Z,6.63
2022-12-29T03:42:37.967Z,6.38
2022-12-29T03:47:40.654Z,4.75
2022-12-29T03:52:43.515Z,4.88
2022-12-29T03:57:46.218Z,7.57
2022-12-29T04:02:54.040Z,7.82
2022-12-29T04:08:01.855Z,7.13
2022-12-29T04:13:04.568Z,7.97
2022-12-29T04:18:07.579Z,5.68
2022-12-29T04:23:11.272Z,9.88
2022-12-29T04:28:15.221Z,5.82
2022-12-29T04:33:41.561Z,5.72
2022-12-29T04:38:44.375Z,11.07
2022-12-29T04:43:47.210Z,9.63
2022-12-29T04:49:09.876Z,6.50
2022-12-29T04:54:35.574Z,6.80
2022-12-29T04:59:46.398Z,16.93
2022-12-29T05:04:50.329Z,6.22
2022-12-29T05:09:53.605Z,6.90
2022-12-29T05:14:56.300Z,7.93
2022-12-29T05:20:00.041Z,8.75
2022-12-29T05:25:03.915Z,5.15
2022-12-29T05:30:11.786Z,10.45
2022-12-29T05:35:15.236Z,5.68
2022-12-29T05:40:18.422Z,10.00
2022-12-29T05:45:21.294Z,9.40
2022-12-29T05:50:31.749Z,13.23
2022-12-29T05:55:50.584Z,6.90
2022-12-29T06:00:53.382Z,3.97
2022-12-29T06:05:56.016Z,4.28
2022-12-29T06:10:59.051Z,10.65
2022-12-29T06:16:01.723Z,8.70
2022-12-29T06:21:06.400Z,3.97
2022-12-29T06:26:09.662Z,14.88
2022-12-29T06:31:12.609Z,5.43
2022-12-29T06:36:15.923Z,7.47
2022-12-29T06:41:24.549Z,9.32
2022-12-29T06:46:49.499Z,8.75
2022-12-29T06:51:52.150Z,8.90
2022-12-29T06:56:54.671Z,8.25
2022-12-29T07:01:57.346Z,9.77
2022-12-29T07:07:00.349Z,9.07
2022-12-29T07:12:03.087Z,9.20
2022-12-29T07:17:07.360Z,10.13
2022-12-29T07:22:11.276Z,6.43
2022-12-29T07:27:14.538Z,7.85
2022-12-29T07:32:17.517Z,8.98
2022-12-29T07:37:20.251Z,10.02
2022-12-29T07:42:22.823Z,8.77
2022-12-29T07:47:28.471Z,8.60
2022-12-29T07:52:31.080Z,5.93
2022-12-29T07:57:33.650Z,9.35
2022-12-29T08:02:37.452Z,7.72
2022-12-29T08:07:40.101Z,5.93
2022-12-29T08:12:43.954Z,11.23
2022-12-29T08:17:46.548Z,19.65
2022-12-29T08:22:49.111Z,17.10
2022-12-29T08:27:51.800Z,14.48
2022-12-29T08:32:54.780Z,13.10
2022-12-29T08:37:57.430Z,14.13
2022-12-29T08:43:00.558Z,12.20
2022-12-29T08:48:03.330Z,13.60
2022-12-29T08:53:06.009Z,12.55
2022-12-29T08:58:08.664Z,11.55
2022-12-29T09:03:14.367Z,13.43
2022-12-29T09:08:23.851Z,12.32
2022-12-29T09:13:28.750Z,15.20
2022-12-29T09:18:32.169Z,14.05
2022-12-29T09:23:35.251Z,16.80
2022-12-29T09:28:38.028Z,11.35
2022-12-29T09:33:40.785Z,13.05
2022-12-29T09:38:43.662Z,11.43
2022-12-29T09:43:49.272Z,9.95
2022-12-29T09:49:01.094Z,9.82
2022-12-29T09:54:22.208Z,7.20
2022-12-29T09:59:38.201Z,11.83
2022-12-29T10:04:43.027Z,15.35
2022-12-29T10:10:02.105Z,13.77
2022-12-29T10:15:46.173Z,9.90
2022-12-29T10:21:02.545Z,13.75
2022-12-29T10:26:10.322Z,10.93
2022-12-29T10:31:22.073Z,12.07
2022-12-29T10:36:49.907Z,19.52
2022-12-29T10:42:14.933Z,12.55
2022-12-29T10:47:25.753Z,12.10
2022-12-29T10:52:30.130Z,12.20
2022-12-29T10:57:37.739Z,10.38
2022-12-29T11:03:13.863Z,11.00
2022-12-29T11:08:26.278Z,11.43
2022-12-29T11:13:36.703Z,11.90
2022-12-29T11:18:43.644Z,12.27
2022-12-29T11:23:57.568Z,13.48
2022-12-29T11:29:09.164Z,11.20
2022-12-29T11:34:31.589Z,11.63
2022-12-29T11:39:36.747Z,17.48
2022-12-29T11:44:45.028Z,13.77
2022-12-29T11:49:52.260Z,13.43
2022-12-29T11:54:57.059Z,15.27
2022-12-29T12:00:02.674Z,12.10
2022-12-29T12:05:14.916Z,14.27
2022-12-29T12:10:45.847Z,14.13
2022-12-29T12:15:57.157Z,15.60
2022-12-29T12:21:19.574Z,15.68
2022-12-29T12:26:29.451Z,15.68
2022-12-29T12:31:56.194Z,14.18
2022-12-29T12:37:21.619Z,16.05
2022-12-29T12:42:46.481Z,16.35
2022-12-29T12:48:03.958Z,13.98
2022-12-29T12:53:19.018Z,17.73
2022-12-29T12:58:33.726Z,19.38
2022-12-29T13:03:42.352Z,20.05
2022-12-29T13:08:53.793Z,21.83
2022-12-29T13:14:20.431Z,20.65
2022-12-29T13:20:01.869Z,22.45
2022-12-29T13:25:28.670Z,17.23
2022-12-29T13:30:53.914Z,16.70
2022-12-29T13:35:59.279Z,18.77
2022-12-29T13:41:10.613Z,25.52
2022-12-29T13:46:22.830Z,31.88
2022-12-29T13:51:28.716Z,32.28
2022-12-29T13:56:43.825Z,35.13
2022-12-29T14:01:59.961Z,27.30
2022-12-29T14:07:14.203Z,30.83
2022-12-29T14:12:34.023Z,29.02
2022-12-29T14:17:37.625Z,31.10
2022-12-29T14:22:58.774Z,29.98
2022-12-29T14:28:17.375Z,31.90
2022-12-29T14:33:22.995Z,32.78
2022-12-29T14:38:28.838Z,26.70
2022-12-29T14:43:31.664Z,34.28
2022-12-29T14:48:39.314Z,36.30
2022-12-29T14:53:52.897Z,34.83
2022-12-29T14:59:00.827Z,35.33
2022-12-29T15:04:31.417Z,42.40
2022-12-29T15:09:43.915Z,36.75
2022-12-29T15:14:54.530Z,41.65
2022-12-29T15:19:59.219Z,32.03
2022-12-29T15:25:01.927Z,33.47
2022-12-29T15:30:17.784Z,31.52
2022-12-29T15:35:34.276Z,34.60
2022-12-29T15:40:36.902Z,29.13
2022-12-29T15:45:40.004Z,38.30
2022-12-29T15:50:44.283Z,30.20
2022-12-29T15:55:48.934Z,29.42
2022-12-29T16:00:58.463Z,30.65
2022-12-29T16:06:31.990Z,31.83
2022-12-29T16:11:41.218Z,32.83
2022-12-29T16:16:45.864Z,24.50
2022-12-29T16:21:49.134Z,28.02
2022-12-29T16:27:00.871Z,32.72
2022-12-29T16:32:23.824Z,31.20
2022-12-29T16:37:35.202Z,33.67
2022-12-29T16:42:51.887Z,29.13
2022-12-29T16:48:07.125Z,35.50
2022-12-29T16:53:30.973Z,33.47
2022-12-29T16:58:36.461Z,28.20
2022-12-29T17:03:43.317Z,38.22
2022-12-29T17:08:47.215Z,40.63
2022-12-29T17:13:49.775Z,29.40
2022-12-29T17:18:52.457Z,38.63
2022-12-29T17:23:55.072Z,34.65
2022-12-29T17:28:57.624Z,31.95
2022-12-29T17:34:01.267Z,35.42
2022-12-29T17:39:04.016Z,34.03
2022-12-29T17:44:07.425Z,31.88
2022-12-29T17:49:15.267Z,34.45
2022-12-29T17:54:25.043Z,33.97
2022-12-29T17:59:28.471Z,34.05
2022-12-29T18:04:31.044Z,33.67
2022-12-29T18:09:33.730Z,43.53
2022-12-29T18:14:36.344Z,38.67
2022-12-29T18:19:38.907Z,34.70
2022-12-29T18:24:41.730Z,34.95
2022-12-29T18:29:44.321Z,44.70
2022-12-29T18:34:49.002Z,39.13
2022-12-29T18:39:51.675Z,41.92
2022-12-29T18:44:55.535Z,37.13
2022-12-29T18:49:58.271Z,44.47
2022-12-29T18:55:00.888Z,41.35
2022-12-29T19:00:04.376Z,41.88
2022-12-29T19:05:31.851Z,39.75
2022-12-29T19:10:35.814Z,39.13
2022-12-29T19:15:38.400Z,43.40
2022-12-29T19:20:43.227Z,43.63
2022-12-29T19:25:46.729Z,38.65
2022-12-29T19:30:52.598Z,41.72
2022-12-29T19:36:02.559Z,41.10
2022-12-29T19:41:07.688Z,42.47
2022-12-29T19:46:11.767Z,39.75
2022-12-29T19:51:17.315Z,37.92
2022-12-29T19:56:20.392Z,37.50
2022-12-29T20:01:23.978Z,36.42
2022-12-29T20:06:26.702Z,38.30
2022-12-29T20:11:29.351Z,42.03
2022-12-29T20:16:32.062Z,42.47
2022-12-29T20:21:34.791Z,43.40
2022-12-29T20:26:37.469Z,37.70
2022-12-29T20:31:40.941Z,42.50
2022-12-29T20:36:46.237Z,39.95
2022-12-29T20:41:48.808Z,35.25
2022-12-29T20:46:51.692Z,40.72
2022-12-29T20:52:11.467Z,38.47
2022-12-29T20:57:14.079Z,37.25
2022-12-29T21:02:21.855Z,44.92
2022-12-29T21:07:24.691Z,44.08
2022-12-29T21:12:27.257Z,49.38
2022-12-29T21:17:29.881Z,43.47
2022-12-29T21:22:32.478Z,46.38
2022-12-29T21:27:35.028Z,39.20
2022-12-29T21:32:37.693Z,40.10
2022-12-29T21:37:40.239Z,32.42
2022-12-29T21:42:42.899Z,37.35
2022-12-29T21:48:04.321Z,36.10
2022-12-29T21:53:06.855Z,39.25
2022-12-29T21:58:28.156Z,36.33
2022-12-29T22:03:49.257Z,32.88
2022-12-29T22:09:10.351Z,34.80
2022-12-29T22:14:13.109Z,36.13
2022-12-29T22:19:16.391Z,36.58
2022-12-29T22:24:18.999Z,33.95
2022-12-29T22:29:21.913Z,35.47
2022-12-29T22:34:24.516Z,35.47
2022-12-29T22:39:27.070Z,32.65
2022-12-29T22:44:29.676Z,34.90
2022-12-29T22:49:32.816Z,32.33
2022-12-29T22:54:35.465Z,32.55
2022-12-29T22:59:38.047Z,36.30
2022-12-29T23:05:02.803Z,34.33
2022-12-29T23:10:05.310Z,32.72
2022-12-29T23:15:08.492Z,32.85
2022-12-29T23:20:11.465Z,35.95
2022-12-29T23:25:14.105Z,34.92
2022-12-29T23:30:16.761Z,33.00
2022-12-29T23:35:19.324Z,33.70
2022-12-29T23:40:21.946Z,34.75
2022-12-29T23:45:24.504Z,32.30
2022-12-29T23:50:27.158Z,35.90
2022-12-29T23:55:29.659Z,31.30
